createdAt,value
2018-09-23T00:02:44.050Z,101247.59
2018-09-23T00:07:47.134Z,101242.72
2018-09-23T00:12:50.216Z,101227.88
2018-09-23T00:17:53.283Z,101217.30
2018-09-23T00:22:56.403Z,101198.77
2018-09-23T00:27:59.497Z,101200.14
2018-09-23T00:33:02.559Z,101199.28
2018-09-23T00:38:05.611Z,101191.95
2018-09-23T00:43:08.719Z,101210.98
2018-09-23T00:48:11.783Z,101201.98
2018-09-23T00:53:14.847Z,101198.84
2018-09-23T00:58:17.926Z,101189.83
2018-09-23T01:03:21.033Z,101184.89
2018-09-23T01:08:24.106Z,101169.75
2018-09-23T01:13:27.155Z,101171.58
2018-09-23T01:18:30.184Z,101160.80
2018-09-23T01:23:33.261Z,101141.17
2018-09-23T01:34:11.750Z,101153.59
2018-09-23T01:45:00.090Z,101154.84
2018-09-23T01:50:03.162Z,101141.25
2018-09-23T01:55:06.243Z,101124.97
2018-09-23T02:00:09.306Z,101121.86
2018-09-23T02:05:12.328Z,101114.45
2018-09-23T02:10:15.451Z,101117.80
2018-09-23T02:15:18.518Z,101113.34
2018-09-23T02:20:21.683Z,101096.62
2018-09-23T02:25:24.714Z,101107.63
2018-09-23T02:30:27.830Z,101102.67
2018-09-23T02:35:30.899Z,101097.41
2018-09-23T02:40:33.929Z,101099.91
2018-09-23T02:45:36.982Z,101083.14
2018-09-23T02:50:40.031Z,101069.09
2018-09-23T02:55:43.079Z,101066.44
2018-09-23T03:00:46.170Z,101066.82
2018-09-23T03:05:49.327Z,101060.53
2018-09-23T03:10:52.537Z,101051.27
2018-09-23T03:15:55.585Z,101047.45
2018-09-23T03:20:58.675Z,101044.08
2018-09-23T03:26:01.782Z,101037.61
2018-09-23T03:31:04.854Z,101036.30
2018-09-23T03:36:08.091Z,101037.89
2018-09-23T03:41:11.122Z,101032.53
2018-09-23T03:46:14.520Z,101024.09
2018-09-23T03:51:17.602Z,101021.02
2018-09-23T03:56:20.716Z,100997.80
2018-09-23T04:01:23.786Z,100999.12
2018-09-23T04:06:26.846Z,100982.51
2018-09-23T04:11:29.907Z,100970.77
2018-09-23T04:16:33.115Z,100963.37
2018-09-23T04:21:36.219Z,100951.53
2018-09-23T04:26:39.301Z,100931.50
2018-09-23T04:31:42.372Z,100928.08
2018-09-23T04:36:45.444Z,100933.47
2018-09-23T04:41:48.562Z,100921.64
2018-09-23T04:46:51.632Z,100947.17
2018-09-23T04:51:54.734Z,100958.11
2018-09-23T04:56:57.813Z,100943.96
2018-09-23T05:02:01.980Z,100941.75
2018-09-23T05:07:05.158Z,100949.70
2018-09-23T05:12:08.262Z,100934.12
2018-09-23T05:17:11.345Z,100927.41
2018-09-23T05:22:14.528Z,100924.06
2018-09-23T05:27:17.605Z,100929.24
2018-09-23T05:32:20.782Z,100929.45
2018-09-23T05:37:23.980Z,100923.53
2018-09-23T05:42:27.815Z,100923.60
2018-09-23T05:47:31.124Z,100915.23
2018-09-23T05:52:34.271Z,100927.59
2018-09-23T05:57:37.378Z,100925.10
2018-09-23T06:02:40.602Z,100926.30
2018-09-23T06:07:43.664Z,100921.61
2018-09-23T06:12:46.772Z,100912.97
2018-09-23T06:17:49.830Z,100909.81
2018-09-23T06:22:52.926Z,100907.04
2018-09-23T06:27:56.121Z,100908.06
2018-09-23T06:32:59.279Z,100900.06
2018-09-23T06:38:02.396Z,100887.08
2018-09-23T06:43:05.527Z,100890.66
2018-09-23T06:48:08.722Z,100903.33
2018-09-23T06:53:11.806Z,100877.93
2018-09-23T06:58:14.981Z,100875.38
2018-09-23T07:03:18.071Z,100889.71
2018-09-23T07:08:21.246Z,100892.97
2018-09-23T07:13:24.438Z,100894.23
2018-09-23T07:18:27.626Z,100910.78
2018-09-23T07:23:33.228Z,100903.05
2018-09-23T07:28:36.382Z,100881.58
2018-09-23T07:33:39.488Z,100862.58
2018-09-23T07:38:42.709Z,100859.17
2018-09-23T07:43:46.095Z,100862.07
2018-09-23T07:48:49.174Z,100836.69
2018-09-23T07:53:52.247Z,100845.97
2018-09-23T07:58:55.362Z,100841.77
2018-09-23T08:03:58.413Z,100840.09
2018-09-23T08:09:01.601Z,100817.87
2018-09-23T08:14:05.181Z,100834.31
2018-09-23T08:19:08.357Z,100843.45
2018-09-23T08:24:11.398Z,100836.60
2018-09-23T08:29:14.482Z,100838.86
2018-09-23T08:34:17.575Z,100814.58
2018-09-23T08:39:20.847Z,100796.52
2018-09-23T08:44:23.965Z,100785.75
2018-09-23T08:49:26.998Z,100786.69
2018-09-23T08:54:30.059Z,100791.80
2018-09-23T08:59:33.227Z,100795.83
2018-09-23T09:04:36.307Z,100783.19
2018-09-23T09:09:39.424Z,100746.70
2018-09-23T09:14:42.726Z,100753.45
2018-09-23T09:19:46.791Z,100738.46
2018-09-23T09:24:49.897Z,100761.22
2018-09-23T09:29:53.036Z,100735.64
2018-09-23T09:34:56.188Z,100708.03
2018-09-23T09:39:59.335Z,100716.63
2018-09-23T09:45:03.166Z,100700.83
2018-09-23T09:50:06.489Z,100698.96
2018-09-23T09:55:09.576Z,100716.84
2018-09-23T10:00:12.679Z,100690.87
2018-09-23T10:05:15.702Z,100691.86
2018-09-23T10:10:19.285Z,100678.33
2018-09-23T10:15:23.750Z,100682.80
2018-09-23T10:20:27.934Z,100694.38
2018-09-23T10:25:32.019Z,100705.38
2018-09-23T10:30:35.744Z,100680.52
2018-09-23T10:35:40.101Z,100658.64
2018-09-23T10:40:43.910Z,100663.36
2018-09-23T10:45:48.255Z,100641.16
2018-09-23T10:50:52.857Z,100674.28
2018-09-23T10:55:57.282Z,100693.36
2018-09-23T11:01:01.599Z,100658.95
2018-09-23T11:06:05.318Z,100634.05
2018-09-23T11:11:09.651Z,100650.39
2018-09-23T11:16:13.851Z,100657.03
2018-09-23T11:21:16.986Z,100667.82
2018-09-23T11:26:20.399Z,100637.98
2018-09-23T11:31:23.551Z,100647.78
2018-09-23T11:36:26.985Z,100597.56
2018-09-23T11:41:31.425Z,100602.00
2018-09-23T11:46:35.122Z,100609.84
2018-09-23T11:51:38.459Z,100611.00
2018-09-23T11:56:42.617Z,100622.05
2018-09-23T12:01:46.664Z,100611.83
2018-09-23T12:06:50.789Z,100574.97
2018-09-23T12:11:54.006Z,100522.34
2018-09-23T12:16:57.149Z,100531.27
2018-09-23T12:22:00.241Z,100543.04
2018-09-23T12:27:03.386Z,100524.16
2018-09-23T12:32:06.559Z,100492.34
2018-09-23T12:37:09.817Z,100543.13
2018-09-23T12:42:12.976Z,100553.01
2018-09-23T12:47:16.206Z,100530.78
2018-09-23T12:52:19.294Z,100559.89
2018-09-23T12:57:22.414Z,100446.11
2018-09-23T13:02:25.656Z,100447.84
2018-09-23T13:07:28.743Z,100430.20
2018-09-23T13:12:31.920Z,100439.86
2018-09-23T13:17:35.142Z,100489.95
2018-09-23T13:22:38.229Z,100556.86
2018-09-23T13:27:41.314Z,100487.25
2018-09-23T13:32:44.390Z,100505.27
2018-09-23T13:37:47.464Z,100521.53
2018-09-23T13:42:50.634Z,100489.81
2018-09-23T13:47:53.725Z,100450.03
2018-09-23T13:52:56.822Z,100485.94
2018-09-23T13:57:59.883Z,100486.08
2018-09-23T14:03:02.966Z,100512.23
2018-09-23T14:08:05.927Z,100477.56
2018-09-23T14:13:08.990Z,100510.36
2018-09-23T14:18:12.091Z,100516.52
2018-09-23T14:23:15.178Z,100481.75
2018-09-23T14:28:18.254Z,100482.99
2018-09-23T14:33:21.407Z,100544.54
2018-09-23T14:38:24.517Z,100558.59
2018-09-23T14:43:27.583Z,100548.92
2018-09-23T14:48:30.778Z,100531.42
2018-09-23T14:53:33.869Z,100518.23
2018-09-23T14:58:36.999Z,100528.39
2018-09-23T15:03:40.369Z,100551.77
2018-09-23T15:08:43.456Z,100563.33
2018-09-23T15:13:46.604Z,100562.53
2018-09-23T15:18:49.774Z,100573.57
2018-09-23T15:23:52.837Z,100565.22
2018-09-23T15:28:55.897Z,100505.66
2018-09-23T15:39:09.219Z,100574.91
2018-09-23T15:44:13.185Z,100597.28
2018-09-23T15:49:17.169Z,100595.34
2018-09-23T15:54:20.287Z,100608.11
2018-09-23T15:59:23.470Z,100619.20
2018-09-23T16:04:26.672Z,100638.99
2018-09-23T16:09:30.035Z,100653.48
2018-09-23T16:14:33.110Z,100660.03
2018-09-23T16:19:36.267Z,100680.84
2018-09-23T16:24:39.390Z,100692.66
2018-09-23T16:29:42.591Z,100683.34
2018-09-23T16:34:45.813Z,100689.13
2018-09-23T16:39:48.869Z,100692.27
2018-09-23T16:44:51.922Z,100720.12
2018-09-23T16:49:55.091Z,100728.00
2018-09-23T16:54:58.221Z,100727.78
2018-09-23T17:00:03.342Z,100766.92
2018-09-23T17:05:06.403Z,100790.36
2018-09-23T17:10:09.541Z,100788.98
2018-09-23T17:15:12.693Z,100805.41
2018-09-23T17:20:15.780Z,100825.58
2018-09-23T17:25:18.883Z,100833.58
2018-09-23T17:30:22.066Z,100854.64
2018-09-23T17:35:25.199Z,100855.45
2018-09-23T17:40:28.344Z,100860.97
2018-09-23T17:45:31.455Z,100882.02
2018-09-23T17:50:34.502Z,100880.70
2018-09-23T17:55:37.696Z,100891.83
2018-09-23T18:00:42.217Z,100907.34
2018-09-23T18:05:45.389Z,100913.61
2018-09-23T18:10:48.589Z,100910.66
2018-09-23T18:15:51.686Z,100912.88
2018-09-23T18:20:54.886Z,100915.50
2018-09-23T18:25:57.981Z,100940.67
2018-09-23T18:31:01.135Z,100958.70
2018-09-23T18:36:04.245Z,100980.69
2018-09-23T18:41:07.417Z,100999.21
2018-09-23T18:46:10.530Z,101013.95
2018-09-23T18:51:13.603Z,101037.23
2018-09-23T18:56:17.491Z,101047.30
2018-09-23T19:01:20.569Z,101060.39
2018-09-23T19:06:23.634Z,101074.81
2018-09-23T19:11:26.719Z,101090.44
2018-09-23T19:16:31.934Z,101119.40
2018-09-23T19:21:34.966Z,101137.33
2018-09-23T19:26:37.981Z,101134.76
2018-09-23T19:31:41.007Z,101150.70
2018-09-23T19:36:44.017Z,101168.19
2018-09-23T19:41:47.050Z,101171.57
2018-09-23T19:46:50.298Z,101183.27
2018-09-23T19:51:53.395Z,101199.27
2018-09-23T19:56:56.459Z,101213.98
2018-09-23T20:01:59.481Z,101217.14
2018-09-23T20:07:02.622Z,101236.05
2018-09-23T20:12:05.741Z,101240.32
2018-09-23T20:17:08.854Z,101247.47
2018-09-23T20:22:12.313Z,101254.70
2018-09-23T20:32:59.949Z,101284.06
2018-09-23T20:38:03.106Z,101290.63
2018-09-23T20:43:06.130Z,101297.39
2018-09-23T20:48:09.171Z,101309.92
2018-09-23T20:53:12.197Z,101324.73
2018-09-23T20:58:15.232Z,101330.36
2018-09-23T21:03:18.299Z,101343.19
2018-09-23T21:08:21.333Z,101348.77
2018-09-23T21:13:24.361Z,101363.28
2018-09-23T21:18:27.484Z,101379.89
2018-09-23T21:23:30.547Z,101396.80
2018-09-23T21:28:33.573Z,101395.72
2018-09-23T21:33:36.620Z,101403.02
2018-09-23T21:38:39.667Z,101419.37
2018-09-23T21:43:42.690Z,101436.14
2018-09-23T21:48:45.737Z,101439.41
2018-09-23T21:53:48.769Z,101448.27
2018-09-23T21:58:51.806Z,101457.75
2018-09-23T22:03:55.211Z,101452.95
2018-09-23T22:08:58.258Z,101467.72
2018-09-23T22:14:01.301Z,101476.97
2018-09-23T22:19:04.358Z,101487.66
2018-09-23T22:24:07.380Z,101487.66
2018-09-23T22:29:10.529Z,101498.70
2018-09-23T22:34:13.566Z,101508.14
2018-09-23T22:39:16.593Z,101528.34
2018-09-23T22:44:19.666Z,101526.67
2018-09-23T22:49:22.706Z,101536.27
2018-09-23T22:54:25.765Z,101552.34
2018-09-23T22:59:28.817Z,101552.45
2018-09-23T23:04:31.857Z,101561.30
2018-09-23T23:09:35.110Z,101569.19
2018-09-23T23:14:38.119Z,101578.94
2018-09-23T23:19:41.159Z,101583.34
2018-09-23T23:24:44.173Z,101598.64
2018-09-23T23:29:47.193Z,101603.95
2018-09-23T23:34:50.212Z,101611.73
2018-09-23T23:39:53.262Z,101618.11
2018-09-23T23:44:56.329Z,101631.57
2018-09-23T23:49:59.362Z,101651.41
2018-09-23T23:55:02.502Z,101651.17
